sensor_id;sensor_type;location;lat;lon;timestamp;P1;durP1;ratioP1;P2;durP2;ratioP2
73938;SDS011;62291;47.554;8.504;2024-01-27T00:00:07;3.38;;;0.80;;
73938;SDS011;62291;47.554;8.504;2024-01-27T00:02:34;3.92;;;1.10;;
73938;SDS011;62291;47.554;8.504;2024-01-27T00:05:00;3.90;;;0.68;;
73938;SDS011;62291;47.554;8.504;2024-01-27T00:07:27;4.10;;;1.27;;
73938;SDS011;62291;47.554;8.504;2024-01-27T00:09:53;3.47;;;0.93;;
73938;SDS011;62291;47.554;8.504;2024-01-27T00:12:20;3.67;;;0.80;;
73938;SDS011;62291;47.554;8.504;2024-01-27T00:14:46;3.88;;;1.05;;
73938;SDS011;62291;47.554;8.504;2024-01-27T00:17:11;4.53;;;1.17;;
73938;SDS011;62291;47.554;8.504;2024-01-27T00:19:37;5.30;;;1.30;;
73938;SDS011;62291;47.554;8.504;2024-01-27T00:22:03;3.95;;;1.10;;
73938;SDS011;62291;47.554;8.504;2024-01-27T00:24:29;5.15;;;0.90;;
73938;SDS011;62291;47.554;8.504;2024-01-27T00:26:54;3.58;;;1.00;;
73938;SDS011;62291;47.554;8.504;2024-01-27T00:29:20;3.42;;;1.10;;
73938;SDS011;62291;47.554;8.504;2024-01-27T00:31:46;5.80;;;1.33;;
73938;SDS011;62291;47.554;8.504;2024-01-27T00:34:11;3.30;;;1.10;;
73938;SDS011;62291;47.554;8.504;2024-01-27T00:36:37;3.28;;;1.40;;
73938;SDS011;62291;47.554;8.504;2024-01-27T00:39:03;4.43;;;1.25;;
73938;SDS011;62291;47.554;8.504;2024-01-27T00:41:29;4.20;;;1.10;;
73938;SDS011;62291;47.554;8.504;2024-01-27T00:43:55;3.03;;;1.10;;
73938;SDS011;62291;47.554;8.504;2024-01-27T00:46:20;3.85;;;1.55;;
73938;SDS011;62291;47.554;8.504;2024-01-27T00:48:46;3.63;;;1.27;;
73938;SDS011;62291;47.554;8.504;2024-01-27T00:51:12;4.55;;;1.27;;
73938;SDS011;62291;47.554;8.504;2024-01-27T00:53:38;3.10;;;1.20;;
73938;SDS011;62291;47.554;8.504;2024-01-27T00:56:04;3.53;;;1.50;;
73938;SDS011;62291;47.554;8.504;2024-01-27T00:58:30;2.90;;;1.27;;
73938;SDS011;62291;47.554;8.504;2024-01-27T01:00:56;4.88;;;1.48;;
73938;SDS011;62291;47.554;8.504;2024-01-27T01:03:23;5.85;;;1.50;;
73938;SDS011;62291;47.554;8.504;2024-01-27T01:05:49;4.22;;;1.60;;
73938;SDS011;62291;47.554;8.504;2024-01-27T01:08:15;8.10;;;1.60;;
73938;SDS011;62291;47.554;8.504;2024-01-27T01:10:40;3.83;;;1.55;;
73938;SDS011;62291;47.554;8.504;2024-01-27T01:13:07;5.78;;;1.50;;
73938;SDS011;62291;47.554;8.504;2024-01-27T01:15:33;7.50;;;1.95;;
73938;SDS011;62291;47.554;8.504;2024-01-27T01:17:58;4.95;;;1.30;;
73938;SDS011;62291;47.554;8.504;2024-01-27T01:20:24;4.35;;;1.42;;
73938;SDS011;62291;47.554;8.504;2024-01-27T01:22:52;5.88;;;2.15;;
73938;SDS011;62291;47.554;8.504;2024-01-27T01:25:18;4.60;;;1.65;;
73938;SDS011;62291;47.554;8.504;2024-01-27T01:27:44;5.55;;;1.38;;
73938;SDS011;62291;47.554;8.504;2024-01-27T01:30:11;10.30;;;2.00;;
73938;SDS011;62291;47.554;8.504;2024-01-27T01:32:36;4.88;;;1.60;;
73938;SDS011;62291;47.554;8.504;2024-01-27T01:35:02;4.30;;;1.75;;
73938;SDS011;62291;47.554;8.504;2024-01-27T01:37:29;2.92;;;1.60;;
73938;SDS011;62291;47.554;8.504;2024-01-27T01:39:54;5.78;;;1.73;;
73938;SDS011;62291;47.554;8.504;2024-01-27T01:42:20;5.47;;;1.85;;
73938;SDS011;62291;47.554;8.504;2024-01-27T01:44:49;7.85;;;1.65;;
73938;SDS011;62291;47.554;8.504;2024-01-27T01:47:16;6.53;;;1.90;;
73938;SDS011;62291;47.554;8.504;2024-01-27T01:49:42;7.40;;;2.10;;
73938;SDS011;62291;47.554;8.504;2024-01-27T01:52:07;5.50;;;1.80;;
73938;SDS011;62291;47.554;8.504;2024-01-27T01:54:34;3.90;;;1.88;;
73938;SDS011;62291;47.554;8.504;2024-01-27T01:56:59;7.57;;;1.83;;
73938;SDS011;62291;47.554;8.504;2024-01-27T01:59:27;4.82;;;2.15;;
73938;SDS011;62291;47.554;8.504;2024-01-27T02:01:52;7.45;;;2.30;;
73938;SDS011;62291;47.554;8.504;2024-01-27T02:04:18;7.30;;;2.47;;
73938;SDS011;62291;47.554;8.504;2024-01-27T02:06:44;7.18;;;2.30;;
73938;SDS011;62291;47.554;8.504;2024-01-27T02:09:09;6.57;;;2.15;;
73938;SDS011;62291;47.554;8.504;2024-01-27T02:11:35;5.13;;;2.08;;
73938;SDS011;62291;47.554;8.504;2024-01-27T02:14:01;6.20;;;2.17;;
73938;SDS011;62291;47.554;8.504;2024-01-27T02:16:26;6.03;;;1.90;;
73938;SDS011;62291;47.554;8.504;2024-01-27T02:18:52;6.20;;;2.95;;
73938;SDS011;62291;47.554;8.504;2024-01-27T02:21:18;7.63;;;3.28;;
73938;SDS011;62291;47.554;8.504;2024-01-27T02:23:44;9.00;;;3.00;;
73938;SDS011;62291;47.554;8.504;2024-01-27T02:26:09;7.13;;;3.03;;
73938;SDS011;62291;47.554;8.504;2024-01-27T02:28:35;7.25;;;2.85;;
73938;SDS011;62291;47.554;8.504;2024-01-27T02:31:01;9.15;;;3.10;;
73938;SDS011;62291;47.554;8.504;2024-01-27T02:33:27;6.78;;;2.83;;
73938;SDS011;62291;47.554;8.504;2024-01-27T02:35:52;8.88;;;2.80;;
73938;SDS011;62291;47.554;8.504;2024-01-27T02:38:18;8.43;;;3.65;;
73938;SDS011;62291;47.554;8.504;2024-01-27T02:40:44;7.30;;;3.60;;
73938;SDS011;62291;47.554;8.504;2024-01-27T02:43:09;8.43;;;2.88;;
73938;SDS011;62291;47.554;8.504;2024-01-27T02:45:35;7.72;;;3.30;;
73938;SDS011;62291;47.554;8.504;2024-01-27T02:48:01;6.72;;;3.33;;
73938;SDS011;62291;47.554;8.504;2024-01-27T02:50:26;7.78;;;3.53;;
73938;SDS011;62291;47.554;8.504;2024-01-27T02:52:52;8.60;;;3.33;;
73938;SDS011;62291;47.554;8.504;2024-01-27T02:55:18;6.70;;;3.22;;
73938;SDS011;62291;47.554;8.504;2024-01-27T02:57:43;7.20;;;3.50;;
73938;SDS011;62291;47.554;8.504;2024-01-27T03:00:09;11.80;;;3.83;;
73938;SDS011;62291;47.554;8.504;2024-01-27T03:02:35;8.25;;;3.80;;
73938;SDS011;62291;47.554;8.504;2024-01-27T03:05:01;9.90;;;4.13;;
73938;SDS011;62291;47.554;8.504;2024-01-27T03:07:27;7.47;;;4.47;;
73938;SDS011;62291;47.554;8.504;2024-01-27T03:09:52;11.20;;;4.90;;
73938;SDS011;62291;47.554;8.504;2024-01-27T03:12:18;13.05;;;3.42;;
73938;SDS011;62291;47.554;8.504;2024-01-27T03:14:44;35.70;;;5.75;;
73938;SDS011;62291;47.554;8.504;2024-01-27T03:17:11;8.63;;;4.07;;
73938;SDS011;62291;47.554;8.504;2024-01-27T03:19:36;8.63;;;3.65;;
73938;SDS011;62291;47.554;8.504;2024-01-27T03:22:02;8.15;;;3.95;;
73938;SDS011;62291;47.554;8.504;2024-01-27T03:24:28;10.02;;;5.07;;
73938;SDS011;62291;47.554;8.504;2024-01-27T03:26:53;12.65;;;4.70;;
73938;SDS011;62291;47.554;8.504;2024-01-27T03:29:19;25.60;;;7.03;;
73938;SDS011;62291;47.554;8.504;2024-01-27T03:31:45;9.85;;;4.32;;
73938;SDS011;62291;47.554;8.504;2024-01-27T03:34:10;14.10;;;5.47;;
73938;SDS011;62291;47.554;8.504;2024-01-27T03:36:36;12.77;;;5.55;;
73938;SDS011;62291;47.554;8.504;2024-01-27T03:39:02;12.75;;;4.80;;
73938;SDS011;62291;47.554;8.504;2024-01-27T03:41:28;11.98;;;5.45;;
73938;SDS011;62291;47.554;8.504;2024-01-27T03:43:54;11.35;;;5.03;;
73938;SDS011;62291;47.554;8.504;2024-01-27T03:46:19;16.35;;;5.50;;
73938;SDS011;62291;47.554;8.504;2024-01-27T03:48:45;40.50;;;5.38;;
73938;SDS011;62291;47.554;8.504;2024-01-27T03:51:11;10.35;;;5.13;;
73938;SDS011;62291;47.554;8.504;2024-01-27T03:53:37;13.00;;;5.30;;
73938;SDS011;62291;47.554;8.504;2024-01-27T03:56:03;8.23;;;4.50;;
73938;SDS011;62291;47.554;8.504;2024-01-27T03:58:29;12.18;;;5.15;;
73938;SDS011;62291;47.554;8.504;2024-01-27T04:00:56;16.50;;;6.82;;
73938;SDS011;62291;47.554;8.504;2024-01-27T04:03:22;10.07;;;4.70;;
73938;SDS011;62291;47.554;8.504;2024-01-27T04:05:48;14.48;;;6.15;;
73938;SDS011;62291;47.554;8.504;2024-01-27T04:08:13;17.58;;;7.43;;
73938;SDS011;62291;47.554;8.504;2024-01-27T04:10:39;11.85;;;6.38;;
73938;SDS011;62291;47.554;8.504;2024-01-27T04:13:05;13.10;;;7.22;;
73938;SDS011;62291;47.554;8.504;2024-01-27T04:15:32;16.80;;;7.30;;
73938;SDS011;62291;47.554;8.504;2024-01-27T04:18:03;15.38;;;7.88;;
73938;SDS011;62291;47.554;8.504;2024-01-27T04:20:29;19.30;;;8.45;;
73938;SDS011;62291;47.554;8.504;2024-01-27T04:22:55;17.90;;;9.02;;
73938;SDS011;62291;47.554;8.504;2024-01-27T04:25:21;91.30;;;13.00;;
73938;SDS011;62291;47.554;8.504;2024-01-27T04:27:47;110.03;;;14.55;;
73938;SDS011;62291;47.554;8.504;2024-01-27T04:30:12;374.77;;;25.52;;
73938;SDS011;62291;47.554;8.504;2024-01-27T04:32:38;177.48;;;18.67;;
73938;SDS011;62291;47.554;8.504;2024-01-27T04:35:04;337.75;;;22.38;;
73938;SDS011;62291;47.554;8.504;2024-01-27T04:37:33;638.03;;;36.83;;
73938;SDS011;62291;47.554;8.504;2024-01-27T04:39:59;736.55;;;42.75;;
73938;SDS011;62291;47.554;8.504;2024-01-27T04:42:27;388.65;;;22.77;;
73938;SDS011;62291;47.554;8.504;2024-01-27T04:44:54;717.60;;;43.30;;
73938;SDS011;62291;47.554;8.504;2024-01-27T04:47:20;144.75;;;15.25;;
73938;SDS011;62291;47.554;8.504;2024-01-27T04:49:45;659.45;;;39.33;;
73938;SDS011;62291;47.554;8.504;2024-01-27T04:52:11;690.25;;;39.90;;
73938;SDS011;62291;47.554;8.504;2024-01-27T04:54:37;253.63;;;18.92;;
73938;SDS011;62291;47.554;8.504;2024-01-27T04:57:02;199.35;;;18.55;;
73938;SDS011;62291;47.554;8.504;2024-01-27T04:59:28;565.60;;;38.92;;
73938;SDS011;62291;47.554;8.504;2024-01-27T05:01:54;483.73;;;28.50;;
73938;SDS011;62291;47.554;8.504;2024-01-27T05:04:20;547.88;;;34.85;;
73938;SDS011;62291;47.554;8.504;2024-01-27T05:06:46;566.15;;;34.92;;
73938;SDS011;62291;47.554;8.504;2024-01-27T05:09:11;506.75;;;28.65;;
73938;SDS011;62291;47.554;8.504;2024-01-27T05:11:37;597.47;;;39.80;;
73938;SDS011;62291;47.554;8.504;2024-01-27T05:14:04;668.22;;;44.60;;
73938;SDS011;62291;47.554;8.504;2024-01-27T05:16:30;612.78;;;38.25;;
73938;SDS011;62291;47.554;8.504;2024-01-27T05:18:57;425.15;;;28.40;;
73938;SDS011;62291;47.554;8.504;2024-01-27T05:21:22;338.20;;;25.58;;
73938;SDS011;62291;47.554;8.504;2024-01-27T05:23:48;395.42;;;26.05;;
73938;SDS011;62291;47.554;8.504;2024-01-27T05:26:14;315.45;;;21.45;;
73938;SDS011;62291;47.554;8.504;2024-01-27T05:28:39;494.60;;;31.30;;
73938;SDS011;62291;47.554;8.504;2024-01-27T05:31:08;408.33;;;27.38;;
73938;SDS011;62291;47.554;8.504;2024-01-27T05:33:34;359.83;;;29.70;;
73938;SDS011;62291;47.554;8.504;2024-01-27T05:36:00;367.95;;;26.25;;
73938;SDS011;62291;47.554;8.504;2024-01-27T05:38:27;476.80;;;33.80;;
73938;SDS011;62291;47.554;8.504;2024-01-27T05:40:55;558.08;;;37.72;;
73938;SDS011;62291;47.554;8.504;2024-01-27T05:43:20;343.55;;;23.50;;
73938;SDS011;62291;47.554;8.504;2024-01-27T05:45:47;395.75;;;24.55;;
73938;SDS011;62291;47.554;8.504;2024-01-27T05:48:14;533.80;;;36.65;;
73938;SDS011;62291;47.554;8.504;2024-01-27T05:50:42;657.65;;;39.83;;
73938;SDS011;62291;47.554;8.504;2024-01-27T05:53:08;396.08;;;28.30;;
73938;SDS011;62291;47.554;8.504;2024-01-27T05:55:33;567.35;;;35.42;;
73938;SDS011;62291;47.554;8.504;2024-01-27T05:57:59;569.75;;;38.03;;
73938;SDS011;62291;47.554;8.504;2024-01-27T06:00:25;362.30;;;23.65;;
73938;SDS011;62291;47.554;8.504;2024-01-27T06:02:51;463.77;;;27.90;;
73938;SDS011;62291;47.554;8.504;2024-01-27T06:05:16;547.53;;;37.47;;
73938;SDS011;62291;47.554;8.504;2024-01-27T06:07:42;330.42;;;27.08;;
73938;SDS011;62291;47.554;8.504;2024-01-27T06:10:08;510.67;;;32.05;;
73938;SDS011;62291;47.554;8.504;2024-01-27T06:12:35;438.55;;;32.08;;
73938;SDS011;62291;47.554;8.504;2024-01-27T06:15:02;549.58;;;36.90;;
73938;SDS011;62291;47.554;8.504;2024-01-27T06:17:28;451.00;;;28.73;;
73938;SDS011;62291;47.554;8.504;2024-01-27T06:19:54;486.88;;;31.08;;
73938;SDS011;62291;47.554;8.504;2024-01-27T06:22:20;320.80;;;24.15;;
73938;SDS011;62291;47.554;8.504;2024-01-27T06:24:46;661.58;;;45.20;;
73938;SDS011;62291;47.554;8.504;2024-01-27T06:27:11;584.75;;;38.75;;
73938;SDS011;62291;47.554;8.504;2024-01-27T06:29:37;560.97;;;32.53;;
73938;SDS011;62291;47.554;8.504;2024-01-27T06:32:05;431.23;;;25.83;;
73938;SDS011;62291;47.554;8.504;2024-01-27T06:34:32;446.80;;;29.90;;
73938;SDS011;62291;47.554;8.504;2024-01-27T06:36:58;813.33;;;49.30;;
73938;SDS011;62291;47.554;8.504;2024-01-27T06:39:24;779.42;;;48.85;;
73938;SDS011;62291;47.554;8.504;2024-01-27T06:41:51;707.60;;;44.70;;
73938;SDS011;62291;47.554;8.504;2024-01-27T06:44:16;516.10;;;34.72;;
73938;SDS011;62291;47.554;8.504;2024-01-27T06:46:42;468.98;;;29.48;;
73938;SDS011;62291;47.554;8.504;2024-01-27T06:49:10;503.83;;;29.95;;
73938;SDS011;62291;47.554;8.504;2024-01-27T06:51:36;506.65;;;33.03;;
73938;SDS011;62291;47.554;8.504;2024-01-27T06:54:02;573.83;;;37.22;;
73938;SDS011;62291;47.554;8.504;2024-01-27T06:56:28;328.63;;;24.10;;
73938;SDS011;62291;47.554;8.504;2024-01-27T06:58:54;607.42;;;38.30;;
73938;SDS011;62291;47.554;8.504;2024-01-27T07:01:19;441.27;;;28.25;;
73938;SDS011;62291;47.554;8.504;2024-01-27T07:03:46;422.30;;;29.20;;
73938;SDS011;62291;47.554;8.504;2024-01-27T07:06:11;357.10;;;24.88;;
73938;SDS011;62291;47.554;8.504;2024-01-27T07:08:37;403.85;;;27.95;;
73938;SDS011;62291;47.554;8.504;2024-01-27T07:11:03;374.77;;;24.05;;
73938;SDS011;62291;47.554;8.504;2024-01-27T07:13:28;332.75;;;25.17;;
73938;SDS011;62291;47.554;8.504;2024-01-27T07:15:56;434.85;;;28.05;;
73938;SDS011;62291;47.554;8.504;2024-01-27T07:18:22;642.05;;;42.65;;
73938;SDS011;62291;47.554;8.504;2024-01-27T07:20:49;572.50;;;39.92;;
73938;SDS011;62291;47.554;8.504;2024-01-27T07:23:16;481.70;;;33.47;;
73938;SDS011;62291;47.554;8.504;2024-01-27T07:25:42;411.88;;;31.15;;
73938;SDS011;62291;47.554;8.504;2024-01-27T07:28:08;594.15;;;37.90;;
73938;SDS011;62291;47.554;8.504;2024-01-27T07:30:34;529.30;;;34.28;;
73938;SDS011;62291;47.554;8.504;2024-01-27T07:33:00;524.58;;;33.72;;
73938;SDS011;62291;47.554;8.504;2024-01-27T07:35:26;587.83;;;40.88;;
73938;SDS011;62291;47.554;8.504;2024-01-27T07:37:51;872.47;;;51.65;;
73938;SDS011;62291;47.554;8.504;2024-01-27T07:40:17;801.85;;;48.10;;
73938;SDS011;62291;47.554;8.504;2024-01-27T07:42:43;786.70;;;46.70;;
73938;SDS011;62291;47.554;8.504;2024-01-27T07:45:09;702.42;;;47.47;;
73938;SDS011;62291;47.554;8.504;2024-01-27T07:47:34;568.92;;;38.08;;
73938;SDS011;62291;47.554;8.504;2024-01-27T07:50:00;449.20;;;33.72;;
73938;SDS011;62291;47.554;8.504;2024-01-27T07:52:26;323.77;;;25.65;;
73938;SDS011;62291;47.554;8.504;2024-01-27T07:54:51;613.72;;;35.03;;
73938;SDS011;62291;47.554;8.504;2024-01-27T07:57:17;456.08;;;27.77;;
73938;SDS011;62291;47.554;8.504;2024-01-27T07:59:43;633.72;;;35.85;;
73938;SDS011;62291;47.554;8.504;2024-01-27T08:02:09;559.35;;;33.60;;
73938;SDS011;62291;47.554;8.504;2024-01-27T08:04:34;499.08;;;34.42;;
73938;SDS011;62291;47.554;8.504;2024-01-27T08:07:00;338.50;;;25.58;;
73938;SDS011;62291;47.554;8.504;2024-01-27T08:09:31;367.02;;;25.52;;
73938;SDS011;62291;47.554;8.504;2024-01-27T08:11:56;601.25;;;34.45;;
73938;SDS011;62291;47.554;8.504;2024-01-27T08:14:22;425.83;;;30.08;;
73938;SDS011;62291;47.554;8.504;2024-01-27T08:16:48;413.23;;;31.05;;
73938;SDS011;62291;47.554;8.504;2024-01-27T08:19:13;626.85;;;36.38;;
73938;SDS011;62291;47.554;8.504;2024-01-27T08:21:45;670.95;;;35.30;;
73938;SDS011;62291;47.554;8.504;2024-01-27T08:24:11;953.13;;;53.15;;
73938;SDS011;62291;47.554;8.504;2024-01-27T08:26:38;599.78;;;38.10;;
73938;SDS011;62291;47.554;8.504;2024-01-27T08:29:03;585.97;;;44.85;;
73938;SDS011;62291;47.554;8.504;2024-01-27T08:31:29;480.10;;;35.30;;
73938;SDS011;62291;47.554;8.504;2024-01-27T08:33:54;464.80;;;30.67;;
73938;SDS011;62291;47.554;8.504;2024-01-27T08:36:20;582.17;;;42.47;;
73938;SDS011;62291;47.554;8.504;2024-01-27T08:38:46;483.08;;;36.53;;
73938;SDS011;62291;47.554;8.504;2024-01-27T08:41:12;443.48;;;32.50;;
73938;SDS011;62291;47.554;8.504;2024-01-27T08:43:37;829.60;;;47.72;;
73938;SDS011;62291;47.554;8.504;2024-01-27T08:46:03;497.10;;;31.95;;
73938;SDS011;62291;47.554;8.504;2024-01-27T08:48:29;775.97;;;48.97;;
73938;SDS011;62291;47.554;8.504;2024-01-27T08:50:54;554.88;;;34.88;;
73938;SDS011;62291;47.554;8.504;2024-01-27T08:53:20;525.15;;;33.22;;
73938;SDS011;62291;47.554;8.504;2024-01-27T08:55:46;443.92;;;37.33;;
73938;SDS011;62291;47.554;8.504;2024-01-27T08:58:12;32.03;;;9.93;;
73938;SDS011;62291;47.554;8.504;2024-01-27T09:00:37;16.00;;;6.25;;
73938;SDS011;62291;47.554;8.504;2024-01-27T09:03:03;21.00;;;6.93;;
73938;SDS011;62291;47.554;8.504;2024-01-27T09:05:29;10.43;;;5.72;;
73938;SDS011;62291;47.554;8.504;2024-01-27T09:07:54;12.82;;;7.53;;
73938;SDS011;62291;47.554;8.504;2024-01-27T09:10:20;44.92;;;8.40;;
73938;SDS011;62291;47.554;8.504;2024-01-27T09:12:46;19.70;;;5.97;;
73938;SDS011;62291;47.554;8.504;2024-01-27T09:15:11;9.70;;;4.15;;
73938;SDS011;62291;47.554;8.504;2024-01-27T09:17:37;6.88;;;3.70;;
73938;SDS011;62291;47.554;8.504;2024-01-27T09:20:03;15.43;;;4.10;;
73938;SDS011;62291;47.554;8.504;2024-01-27T09:22:34;4.80;;;3.30;;
73938;SDS011;62291;47.554;8.504;2024-01-27T09:25:00;6.70;;;4.70;;
73938;SDS011;62291;47.554;8.504;2024-01-27T09:27:26;10.13;;;3.50;;
73938;SDS011;62291;47.554;8.504;2024-01-27T09:29:51;7.15;;;4.40;;
73938;SDS011;62291;47.554;8.504;2024-01-27T09:32:17;5.43;;;4.35;;
73938;SDS011;62291;47.554;8.504;2024-01-27T09:34:43;8.35;;;6.50;;
73938;SDS011;62291;47.554;8.504;2024-01-27T09:37:09;9.68;;;4.90;;
73938;SDS011;62291;47.554;8.504;2024-01-27T09:39:34;6.22;;;4.93;;
73938;SDS011;62291;47.554;8.504;2024-01-27T09:42:00;8.75;;;5.70;;
73938;SDS011;62291;47.554;8.504;2024-01-27T09:44:31;11.23;;;6.72;;
73938;SDS011;62291;47.554;8.504;2024-01-27T09:46:58;8.60;;;4.78;;
73938;SDS011;62291;47.554;8.504;2024-01-27T09:49:24;5.93;;;4.07;;
73938;SDS011;62291;47.554;8.504;2024-01-27T09:51:52;5.30;;;3.80;;
73938;SDS011;62291;47.554;8.504;2024-01-27T09:54:18;6.00;;;3.80;;
73938;SDS011;62291;47.554;8.504;2024-01-27T09:56:45;7.57;;;4.15;;
73938;SDS011;62291;47.554;8.504;2024-01-27T09:59:11;12.75;;;5.00;;
73938;SDS011;62291;47.554;8.504;2024-01-27T10:01:39;7.80;;;3.72;;
73938;SDS011;62291;47.554;8.504;2024-01-27T10:04:06;11.15;;;4.85;;
73938;SDS011;62291;47.554;8.504;2024-01-27T10:06:34;9.70;;;4.60;;
73938;SDS011;62291;47.554;8.504;2024-01-27T10:09:00;8.68;;;4.35;;
73938;SDS011;62291;47.554;8.504;2024-01-27T10:11:27;11.38;;;4.93;;
73938;SDS011;62291;47.554;8.504;2024-01-27T10:13:55;11.05;;;4.38;;
73938;SDS011;62291;47.554;8.504;2024-01-27T10:16:22;10.48;;;4.07;;
73938;SDS011;62291;47.554;8.504;2024-01-27T10:18:58;8.32;;;4.00;;
73938;SDS011;62291;47.554;8.504;2024-01-27T10:21:25;10.05;;;4.00;;
73938;SDS011;62291;47.554;8.504;2024-01-27T10:23:51;10.32;;;4.28;;
73938;SDS011;62291;47.554;8.504;2024-01-27T10:26:17;7.00;;;3.60;;
73938;SDS011;62291;47.554;8.504;2024-01-27T10:28:43;6.30;;;3.42;;
73938;SDS011;62291;47.554;8.504;2024-01-27T10:31:16;12.20;;;3.42;;
73938;SDS011;62291;47.554;8.504;2024-01-27T10:33:51;6.90;;;3.30;;
73938;SDS011;62291;47.554;8.504;2024-01-27T10:36:18;9.85;;;4.00;;
73938;SDS011;62291;47.554;8.504;2024-01-27T10:38:44;8.93;;;3.80;;
73938;SDS011;62291;47.554;8.504;2024-01-27T10:41:10;8.32;;;4.00;;
73938;SDS011;62291;47.554;8.504;2024-01-27T10:43:36;9.13;;;3.75;;
73938;SDS011;62291;47.554;8.504;2024-01-27T10:46:05;8.25;;;4.20;;
73938;SDS011;62291;47.554;8.504;2024-01-27T10:48:35;10.60;;;3.97;;
73938;SDS011;62291;47.554;8.504;2024-01-27T10:51:07;8.32;;;4.28;;
73938;SDS011;62291;47.554;8.504;2024-01-27T10:53:34;11.05;;;5.60;;
73938;SDS011;62291;47.554;8.504;2024-01-27T10:56:02;17.20;;;6.70;;
73938;SDS011;62291;47.554;8.504;2024-01-27T10:58:32;10.10;;;4.28;;
73938;SDS011;62291;47.554;8.504;2024-01-27T11:01:05;7.18;;;3.67;;
73938;SDS011;62291;47.554;8.504;2024-01-27T11:03:36;7.13;;;3.58;;
73938;SDS011;62291;47.554;8.504;2024-01-27T11:06:04;6.50;;;3.15;;
73938;SDS011;62291;47.554;8.504;2024-01-27T11:08:31;8.25;;;3.40;;
73938;SDS011;62291;47.554;8.504;2024-01-27T11:10:58;9.35;;;3.33;;
73938;SDS011;62291;47.554;8.504;2024-01-27T11:13:24;7.50;;;3.40;;
73938;SDS011;62291;47.554;8.504;2024-01-27T11:15:52;8.20;;;3.45;;
73938;SDS011;62291;47.554;8.504;2024-01-27T11:18:19;9.52;;;3.65;;
73938;SDS011;62291;47.554;8.504;2024-01-27T11:20:45;5.40;;;3.22;;
73938;SDS011;62291;47.554;8.504;2024-01-27T11:23:13;7.50;;;3.53;;
73938;SDS011;62291;47.554;8.504;2024-01-27T11:25:39;9.93;;;3.80;;
73938;SDS011;62291;47.554;8.504;2024-01-27T11:28:15;13.52;;;3.35;;
73938;SDS011;62291;47.554;8.504;2024-01-27T11:30:45;7.97;;;3.83;;
73938;SDS011;62291;47.554;8.504;2024-01-27T11:33:12;9.50;;;3.72;;
73938;SDS011;62291;47.554;8.504;2024-01-27T11:35:38;8.52;;;3.83;;
73938;SDS011;62291;47.554;8.504;2024-01-27T11:38:04;8.60;;;3.90;;
73938;SDS011;62291;47.554;8.504;2024-01-27T11:40:29;7.88;;;3.70;;
73938;SDS011;62291;47.554;8.504;2024-01-27T11:42:59;9.82;;;4.18;;
73938;SDS011;62291;47.554;8.504;2024-01-27T11:45:26;9.97;;;4.17;;
73938;SDS011;62291;47.554;8.504;2024-01-27T11:47:56;9.13;;;3.58;;
73938;SDS011;62291;47.554;8.504;2024-01-27T11:50:22;6.45;;;3.72;;
73938;SDS011;62291;47.554;8.504;2024-01-27T11:52:48;6.38;;;3.35;;
73938;SDS011;62291;47.554;8.504;2024-01-27T11:55:14;8.63;;;3.45;;
73938;SDS011;62291;47.554;8.504;2024-01-27T11:57:44;13.73;;;5.35;;
73938;SDS011;62291;47.554;8.504;2024-01-27T12:00:10;9.15;;;3.85;;
73938;SDS011;62291;47.554;8.504;2024-01-27T12:02:36;10.30;;;4.10;;
73938;SDS011;62291;47.554;8.504;2024-01-27T12:05:03;6.65;;;3.70;;
73938;SDS011;62291;47.554;8.504;2024-01-27T12:07:29;9.25;;;3.65;;
73938;SDS011;62291;47.554;8.504;2024-01-27T12:09:56;7.63;;;3.42;;
73938;SDS011;62291;47.554;8.504;2024-01-27T12:12:22;8.05;;;3.10;;
73938;SDS011;62291;47.554;8.504;2024-01-27T12:14:48;7.68;;;3.67;;
73938;SDS011;62291;47.554;8.504;2024-01-27T12:17:15;7.32;;;3.80;;
73938;SDS011;62291;47.554;8.504;2024-01-27T12:19:47;6.75;;;3.38;;
73938;SDS011;62291;47.554;8.504;2024-01-27T12:22:32;7.35;;;3.30;;
73938;SDS011;62291;47.554;8.504;2024-01-27T12:25:09;7.57;;;3.50;;
73938;SDS011;62291;47.554;8.504;2024-01-27T12:27:36;8.02;;;3.72;;
73938;SDS011;62291;47.554;8.504;2024-01-27T12:30:03;7.78;;;3.88;;
73938;SDS011;62291;47.554;8.504;2024-01-27T12:32:29;8.25;;;4.03;;
73938;SDS011;62291;47.554;8.504;2024-01-27T12:34:57;7.15;;;3.42;;
73938;SDS011;62291;47.554;8.504;2024-01-27T12:37:25;8.65;;;3.65;;
73938;SDS011;62291;47.554;8.504;2024-01-27T12:39:51;7.13;;;3.78;;
73938;SDS011;62291;47.554;8.504;2024-01-27T12:42:17;8.90;;;3.72;;
73938;SDS011;62291;47.554;8.504;2024-01-27T12:44:43;8.50;;;4.22;;
73938;SDS011;62291;47.554;8.504;2024-01-27T12:47:11;7.53;;;3.60;;
73938;SDS011;62291;47.554;8.504;2024-01-27T12:49:38;6.72;;;3.78;;
73938;SDS011;62291;47.554;8.504;2024-01-27T12:52:05;6.78;;;3.58;;
73938;SDS011;62291;47.554;8.504;2024-01-27T12:54:31;10.65;;;3.80;;
73938;SDS011;62291;47.554;8.504;2024-01-27T12:56:57;7.93;;;3.40;;
73938;SDS011;62291;47.554;8.504;2024-01-27T12:59:24;9.70;;;3.53;;
73938;SDS011;62291;47.554;8.504;2024-01-27T13:01:50;7.07;;;3.28;;
73938;SDS011;62291;47.554;8.504;2024-01-27T13:04:16;9.32;;;3.42;;
73938;SDS011;62291;47.554;8.504;2024-01-27T13:06:41;7.88;;;3.40;;
73938;SDS011;62291;47.554;8.504;2024-01-27T13:09:07;7.43;;;3.30;;
73938;SDS011;62291;47.554;8.504;2024-01-27T13:11:37;7.18;;;3.60;;
73938;SDS011;62291;47.554;8.504;2024-01-27T13:14:03;7.35;;;3.38;;
73938;SDS011;62291;47.554;8.504;2024-01-27T13:16:29;7.50;;;3.47;;
73938;SDS011;62291;47.554;8.504;2024-01-27T13:18:55;7.93;;;3.20;;
73938;SDS011;62291;47.554;8.504;2024-01-27T13:21:21;5.45;;;3.10;;
73938;SDS011;62291;47.554;8.504;2024-01-27T13:23:46;9.25;;;3.75;;
73938;SDS011;62291;47.554;8.504;2024-01-27T13:26:12;8.00;;;3.55;;
73938;SDS011;62291;47.554;8.504;2024-01-27T13:28:38;7.20;;;3.35;;
73938;SDS011;62291;47.554;8.504;2024-01-27T13:31:03;10.00;;;3.40;;
73938;SDS011;62291;47.554;8.504;2024-01-27T13:33:30;9.68;;;3.65;;
73938;SDS011;62291;47.554;8.504;2024-01-27T13:35:55;7.43;;;3.85;;
73938;SDS011;62291;47.554;8.504;2024-01-27T13:38:22;7.05;;;3.40;;
73938;SDS011;62291;47.554;8.504;2024-01-27T13:40:51;7.20;;;3.03;;
73938;SDS011;62291;47.554;8.504;2024-01-27T13:43:17;6.88;;;3.72;;
73938;SDS011;62291;47.554;8.504;2024-01-27T13:45:43;7.88;;;3.60;;
73938;SDS011;62291;47.554;8.504;2024-01-27T13:48:09;7.70;;;3.38;;
73938;SDS011;62291;47.554;8.504;2024-01-27T13:50:35;10.65;;;4.13;;
73938;SDS011;62291;47.554;8.504;2024-01-27T13:53:01;9.55;;;3.78;;
73938;SDS011;62291;47.554;8.504;2024-01-27T13:55:27;9.02;;;3.10;;
73938;SDS011;62291;47.554;8.504;2024-01-27T13:57:52;8.35;;;3.85;;
73938;SDS011;62291;47.554;8.504;2024-01-27T14:00:18;8.70;;;3.20;;
73938;SDS011;62291;47.554;8.504;2024-01-27T14:02:45;7.72;;;3.22;;
73938;SDS011;62291;47.554;8.504;2024-01-27T14:05:10;8.38;;;3.25;;
73938;SDS011;62291;47.554;8.504;2024-01-27T14:07:36;8.38;;;3.55;;
73938;SDS011;62291;47.554;8.504;2024-01-27T14:10:02;7.95;;;3.50;;
73938;SDS011;62291;47.554;8.504;2024-01-27T14:12:29;7.00;;;3.03;;
73938;SDS011;62291;47.554;8.504;2024-01-27T14:15:02;7.85;;;4.03;;
73938;SDS011;62291;47.554;8.504;2024-01-27T14:17:31;7.97;;;3.42;;
73938;SDS011;62291;47.554;8.504;2024-01-27T14:19:59;7.88;;;2.92;;
73938;SDS011;62291;47.554;8.504;2024-01-27T14:22:24;5.93;;;3.30;;
73938;SDS011;62291;47.554;8.504;2024-01-27T14:24:50;8.68;;;2.95;;
73938;SDS011;62291;47.554;8.504;2024-01-27T14:27:16;6.40;;;2.42;;